sensor_id;sensor_type;location;lat;lon;timestamp;P1;durP1;ratioP1;P2;durP2;ratioP2
70266;SDS011;57676;43.856;1.926;2022-07-22T00:01:27;5.78;;;4.50;;
70266;SDS011;57676;43.856;1.926;2022-07-22T00:03:53;8.20;;;4.78;;
70266;SDS011;57676;43.856;1.926;2022-07-22T00:06:19;6.15;;;4.70;;
70266;SDS011;57676;43.856;1.926;2022-07-22T00:08:47;6.60;;;4.70;;
70266;SDS011;57676;43.856;1.926;2022-07-22T00:11:15;8.27;;;4.85;;
70266;SDS011;57676;43.856;1.926;2022-07-22T00:13:41;6.75;;;5.47;;
70266;SDS011;57676;43.856;1.926;2022-07-22T00:16:09;7.00;;;4.78;;
70266;SDS011;57676;43.856;1.926;2022-07-22T00:18:35;5.68;;;4.60;;
70266;SDS011;57676;43.856;1.926;2022-07-22T00:21:14;6.13;;;4.55;;
70266;SDS011;57676;43.856;1.926;2022-07-22T00:23:45;7.28;;;4.85;;
70266;SDS011;57676;43.856;1.926;2022-07-22T00:26:12;7.38;;;4.75;;
70266;SDS011;57676;43.856;1.926;2022-07-22T00:28:38;10.82;;;4.45;;
70266;SDS011;57676;43.856;1.926;2022-07-22T00:31:05;8.35;;;4.80;;
70266;SDS011;57676;43.856;1.926;2022-07-22T00:33:32;8.02;;;4.57;;
70266;SDS011;57676;43.856;1.926;2022-07-22T00:35:59;5.95;;;4.78;;
70266;SDS011;57676;43.856;1.926;2022-07-22T00:38:25;8.52;;;4.97;;
70266;SDS011;57676;43.856;1.926;2022-07-22T00:40:53;7.18;;;4.72;;
70266;SDS011;57676;43.856;1.926;2022-07-22T00:45:49;6.78;;;4.97;;
70266;SDS011;57676;43.856;1.926;2022-07-22T00:50:46;8.50;;;5.15;;
70266;SDS011;57676;43.856;1.926;2022-07-22T00:53:13;8.52;;;5.22;;
70266;SDS011;57676;43.856;1.926;2022-07-22T00:55:39;6.55;;;4.95;;
70266;SDS011;57676;43.856;1.926;2022-07-22T00:58:07;6.38;;;5.15;;
70266;SDS011;57676;43.856;1.926;2022-07-22T01:00:33;11.50;;;5.57;;
70266;SDS011;57676;43.856;1.926;2022-07-22T01:05:28;7.93;;;4.75;;
70266;SDS011;57676;43.856;1.926;2022-07-22T01:07:54;6.20;;;5.50;;
70266;SDS011;57676;43.856;1.926;2022-07-22T01:10:20;7.03;;;5.07;;
70266;SDS011;57676;43.856;1.926;2022-07-22T01:12:47;8.48;;;4.78;;
70266;SDS011;57676;43.856;1.926;2022-07-22T01:15:13;8.35;;;5.00;;
70266;SDS011;57676;43.856;1.926;2022-07-22T01:17:39;6.63;;;5.00;;
70266;SDS011;57676;43.856;1.926;2022-07-22T01:20:07;6.22;;;5.15;;
70266;SDS011;57676;43.856;1.926;2022-07-22T01:22:33;7.95;;;5.10;;
70266;SDS011;57676;43.856;1.926;2022-07-22T01:24:59;9.35;;;5.18;;
70266;SDS011;57676;43.856;1.926;2022-07-22T01:27:26;8.65;;;5.10;;
70266;SDS011;57676;43.856;1.926;2022-07-22T01:29:53;6.30;;;4.68;;
70266;SDS011;57676;43.856;1.926;2022-07-22T01:34:52;5.38;;;4.45;;
70266;SDS011;57676;43.856;1.926;2022-07-22T01:37:18;7.90;;;4.90;;
70266;SDS011;57676;43.856;1.926;2022-07-22T01:39:49;6.82;;;5.00;;
70266;SDS011;57676;43.856;1.926;2022-07-22T01:42:15;9.60;;;5.35;;
70266;SDS011;57676;43.856;1.926;2022-07-22T01:44:42;6.38;;;4.68;;
70266;SDS011;57676;43.856;1.926;2022-07-22T01:47:09;9.88;;;4.65;;
70266;SDS011;57676;43.856;1.926;2022-07-22T01:49:37;9.60;;;4.82;;
70266;SDS011;57676;43.856;1.926;2022-07-22T01:52:03;6.70;;;4.60;;
70266;SDS011;57676;43.856;1.926;2022-07-22T01:54:36;10.77;;;4.82;;
70266;SDS011;57676;43.856;1.926;2022-07-22T01:59:38;9.75;;;5.15;;
70266;SDS011;57676;43.856;1.926;2022-07-22T02:02:05;9.82;;;5.15;;
70266;SDS011;57676;43.856;1.926;2022-07-22T02:04:32;7.97;;;5.10;;
70266;SDS011;57676;43.856;1.926;2022-07-22T02:07:00;8.50;;;5.10;;
70266;SDS011;57676;43.856;1.926;2022-07-22T02:09:30;11.52;;;5.60;;
70266;SDS011;57676;43.856;1.926;2022-07-22T02:11:57;6.40;;;4.65;;
70266;SDS011;57676;43.856;1.926;2022-07-22T02:14:24;9.18;;;5.22;;
70266;SDS011;57676;43.856;1.926;2022-07-22T02:16:52;7.68;;;5.10;;
70266;SDS011;57676;43.856;1.926;2022-07-22T02:19:19;8.63;;;4.95;;
70266;SDS011;57676;43.856;1.926;2022-07-22T02:21:45;11.55;;;5.47;;
70266;SDS011;57676;43.856;1.926;2022-07-22T02:24:11;6.47;;;4.82;;
70266;SDS011;57676;43.856;1.926;2022-07-22T02:26:39;6.88;;;4.72;;
70266;SDS011;57676;43.856;1.926;2022-07-22T02:29:05;6.03;;;4.45;;
70266;SDS011;57676;43.856;1.926;2022-07-22T02:31:33;6.78;;;4.65;;
70266;SDS011;57676;43.856;1.926;2022-07-22T02:33:59;6.90;;;4.63;;
70266;SDS011;57676;43.856;1.926;2022-07-22T02:36:26;11.43;;;5.28;;
70266;SDS011;57676;43.856;1.926;2022-07-22T02:38:53;8.55;;;4.78;;
70266;SDS011;57676;43.856;1.926;2022-07-22T02:41:28;7.80;;;4.60;;
70266;SDS011;57676;43.856;1.926;2022-07-22T02:43:54;8.98;;;5.10;;
70266;SDS011;57676;43.856;1.926;2022-07-22T02:46:22;6.05;;;4.68;;
70266;SDS011;57676;43.856;1.926;2022-07-22T02:48:51;9.95;;;4.80;;
70266;SDS011;57676;43.856;1.926;2022-07-22T02:51:19;7.43;;;5.10;;
70266;SDS011;57676;43.856;1.926;2022-07-22T02:53:45;9.48;;;4.68;;
70266;SDS011;57676;43.856;1.926;2022-07-22T02:56:12;9.20;;;5.57;;
70266;SDS011;57676;43.856;1.926;2022-07-22T02:58:41;8.02;;;5.10;;
70266;SDS011;57676;43.856;1.926;2022-07-22T03:01:08;8.15;;;4.78;;
70266;SDS011;57676;43.856;1.926;2022-07-22T03:03:34;10.20;;;5.00;;
70266;SDS011;57676;43.856;1.926;2022-07-22T03:06:00;5.65;;;4.45;;
70266;SDS011;57676;43.856;1.926;2022-07-22T03:08:28;6.35;;;4.95;;
70266;SDS011;57676;43.856;1.926;2022-07-22T03:10:56;11.70;;;4.53;;
70266;SDS011;57676;43.856;1.926;2022-07-22T03:13:22;8.18;;;5.10;;
70266;SDS011;57676;43.856;1.926;2022-07-22T03:15:48;10.43;;;4.90;;
70266;SDS011;57676;43.856;1.926;2022-07-22T03:18:14;7.80;;;4.43;;
70266;SDS011;57676;43.856;1.926;2022-07-22T03:20:40;8.05;;;4.82;;
70266;SDS011;57676;43.856;1.926;2022-07-22T03:23:07;8.60;;;4.93;;
70266;SDS011;57676;43.856;1.926;2022-07-22T03:25:33;10.52;;;5.18;;
70266;SDS011;57676;43.856;1.926;2022-07-22T03:27:59;6.90;;;5.20;;
70266;SDS011;57676;43.856;1.926;2022-07-22T03:30:37;5.32;;;4.78;;
70266;SDS011;57676;43.856;1.926;2022-07-22T03:33:03;7.32;;;4.75;;
70266;SDS011;57676;43.856;1.926;2022-07-22T03:35:30;7.68;;;4.75;;
70266;SDS011;57676;43.856;1.926;2022-07-22T03:38:02;10.27;;;4.93;;
70266;SDS011;57676;43.856;1.926;2022-07-22T03:40:30;7.95;;;4.43;;
70266;SDS011;57676;43.856;1.926;2022-07-22T03:43:00;7.97;;;4.65;;
70266;SDS011;57676;43.856;1.926;2022-07-22T03:45:34;9.80;;;5.10;;
70266;SDS011;57676;43.856;1.926;2022-07-22T03:48:13;7.47;;;5.30;;
70266;SDS011;57676;43.856;1.926;2022-07-22T03:50:46;8.25;;;4.80;;
70266;SDS011;57676;43.856;1.926;2022-07-22T03:53:26;9.73;;;5.38;;
70266;SDS011;57676;43.856;1.926;2022-07-22T03:55:59;6.53;;;4.55;;
70266;SDS011;57676;43.856;1.926;2022-07-22T03:59:03;9.50;;;4.90;;
70266;SDS011;57676;43.856;1.926;2022-07-22T04:01:29;6.68;;;4.60;;
70266;SDS011;57676;43.856;1.926;2022-07-22T04:03:57;9.35;;;5.35;;
70266;SDS011;57676;43.856;1.926;2022-07-22T04:06:24;9.55;;;5.15;;
70266;SDS011;57676;43.856;1.926;2022-07-22T04:08:57;7.47;;;4.75;;
70266;SDS011;57676;43.856;1.926;2022-07-22T04:11:31;10.75;;;5.80;;
70266;SDS011;57676;43.856;1.926;2022-07-22T04:13:57;9.50;;;4.93;;
70266;SDS011;57676;43.856;1.926;2022-07-22T04:16:34;5.30;;;4.80;;
70266;SDS011;57676;43.856;1.926;2022-07-22T04:19:08;8.25;;;5.20;;
70266;SDS011;57676;43.856;1.926;2022-07-22T04:21:36;9.00;;;5.05;;
70266;SDS011;57676;43.856;1.926;2022-07-22T04:24:11;17.92;;;5.30;;
70266;SDS011;57676;43.856;1.926;2022-07-22T04:26:37;7.97;;;4.97;;
70266;SDS011;57676;43.856;1.926;2022-07-22T04:34:05;7.15;;;4.82;;
70266;SDS011;57676;43.856;1.926;2022-07-22T04:36:31;8.68;;;5.50;;
70266;SDS011;57676;43.856;1.926;2022-07-22T04:39:02;9.15;;;5.07;;
70266;SDS011;57676;43.856;1.926;2022-07-22T04:41:33;8.70;;;4.70;;
70266;SDS011;57676;43.856;1.926;2022-07-22T04:44:01;7.45;;;5.43;;
70266;SDS011;57676;43.856;1.926;2022-07-22T04:46:28;7.95;;;5.50;;
70266;SDS011;57676;43.856;1.926;2022-07-22T04:48:54;7.55;;;4.68;;
70266;SDS011;57676;43.856;1.926;2022-07-22T04:51:20;10.80;;;5.38;;
70266;SDS011;57676;43.856;1.926;2022-07-22T04:53:47;7.38;;;5.50;;
70266;SDS011;57676;43.856;1.926;2022-07-22T04:56:13;8.27;;;5.68;;
70266;SDS011;57676;43.856;1.926;2022-07-22T04:58:41;10.65;;;5.25;;
70266;SDS011;57676;43.856;1.926;2022-07-22T05:01:15;8.07;;;4.95;;
70266;SDS011;57676;43.856;1.926;2022-07-22T05:03:58;11.38;;;5.05;;
70266;SDS011;57676;43.856;1.926;2022-07-22T05:08:51;6.47;;;5.30;;
70266;SDS011;57676;43.856;1.926;2022-07-22T05:11:26;43.45;;;7.68;;
70266;SDS011;57676;43.856;1.926;2022-07-22T05:16:21;46.28;;;6.95;;
70266;SDS011;57676;43.856;1.926;2022-07-22T05:18:53;13.35;;;6.25;;
70266;SDS011;57676;43.856;1.926;2022-07-22T05:21:24;12.20;;;5.45;;
70266;SDS011;57676;43.856;1.926;2022-07-22T05:23:57;15.23;;;6.10;;
70266;SDS011;57676;43.856;1.926;2022-07-22T05:26:23;16.33;;;6.03;;
70266;SDS011;57676;43.856;1.926;2022-07-22T05:28:52;17.73;;;6.43;;
70266;SDS011;57676;43.856;1.926;2022-07-22T05:31:29;14.73;;;6.38;;
70266;SDS011;57676;43.856;1.926;2022-07-22T05:33:56;12.55;;;5.85;;
70266;SDS011;57676;43.856;1.926;2022-07-22T05:36:24;13.88;;;6.13;;
70266;SDS011;57676;43.856;1.926;2022-07-22T05:38:51;7.93;;;5.60;;
70266;SDS011;57676;43.856;1.926;2022-07-22T05:41:18;7.60;;;5.55;;
70266;SDS011;57676;43.856;1.926;2022-07-22T05:43:46;8.18;;;5.60;;
70266;SDS011;57676;43.856;1.926;2022-07-22T05:48:50;9.68;;;6.28;;
70266;SDS011;57676;43.856;1.926;2022-07-22T05:51:28;8.52;;;5.97;;
70266;SDS011;57676;43.856;1.926;2022-07-22T05:54:09;7.38;;;6.15;;
70266;SDS011;57676;43.856;1.926;2022-07-22T05:59:26;9.10;;;5.97;;
70266;SDS011;57676;43.856;1.926;2022-07-22T06:01:52;14.90;;;5.65;;
70266;SDS011;57676;43.856;1.926;2022-07-22T06:04:19;10.88;;;5.82;;
70266;SDS011;57676;43.856;1.926;2022-07-22T06:06:46;6.82;;;5.45;;
70266;SDS011;57676;43.856;1.926;2022-07-22T06:09:13;7.22;;;5.45;;
70266;SDS011;57676;43.856;1.926;2022-07-22T06:11:41;10.57;;;6.28;;
70266;SDS011;57676;43.856;1.926;2022-07-22T06:14:11;8.98;;;5.60;;
70266;SDS011;57676;43.856;1.926;2022-07-22T06:19:08;6.47;;;5.80;;
70266;SDS011;57676;43.856;1.926;2022-07-22T06:21:36;12.25;;;6.50;;
70266;SDS011;57676;43.856;1.926;2022-07-22T06:24:05;7.15;;;5.82;;
70266;SDS011;57676;43.856;1.926;2022-07-22T06:26:31;9.25;;;6.18;;
70266;SDS011;57676;43.856;1.926;2022-07-22T06:29:00;10.13;;;6.28;;
70266;SDS011;57676;43.856;1.926;2022-07-22T06:31:27;9.98;;;5.80;;
70266;SDS011;57676;43.856;1.926;2022-07-22T06:33:53;11.93;;;5.82;;
70266;SDS011;57676;43.856;1.926;2022-07-22T06:36:19;12.43;;;5.78;;
70266;SDS011;57676;43.856;1.926;2022-07-22T06:38:51;8.30;;;6.50;;
70266;SDS011;57676;43.856;1.926;2022-07-22T06:43:48;7.63;;;5.90;;
70266;SDS011;57676;43.856;1.926;2022-07-22T06:46:15;7.75;;;5.57;;
70266;SDS011;57676;43.856;1.926;2022-07-22T06:48:42;9.77;;;5.80;;
70266;SDS011;57676;43.856;1.926;2022-07-22T06:51:08;9.00;;;6.32;;
70266;SDS011;57676;43.856;1.926;2022-07-22T06:56:05;10.35;;;5.70;;
70266;SDS011;57676;43.856;1.926;2022-07-22T06:58:37;10.80;;;6.70;;
70266;SDS011;57676;43.856;1.926;2022-07-22T07:01:04;8.07;;;5.93;;
70266;SDS011;57676;43.856;1.926;2022-07-22T07:03:32;9.30;;;6.03;;
70266;SDS011;57676;43.856;1.926;2022-07-22T07:05:59;9.60;;;6.25;;
70266;SDS011;57676;43.856;1.926;2022-07-22T07:08:29;30.90;;;7.78;;
70266;SDS011;57676;43.856;1.926;2022-07-22T07:10:57;18.33;;;6.78;;
70266;SDS011;57676;43.856;1.926;2022-07-22T07:13:24;8.23;;;6.22;;
70266;SDS011;57676;43.856;1.926;2022-07-22T07:15:51;8.02;;;6.55;;
70266;SDS011;57676;43.856;1.926;2022-07-22T07:18:18;8.90;;;6.38;;
70266;SDS011;57676;43.856;1.926;2022-07-22T07:20:44;10.10;;;6.53;;
70266;SDS011;57676;43.856;1.926;2022-07-22T07:23:10;10.45;;;5.97;;
70266;SDS011;57676;43.856;1.926;2022-07-22T07:25:39;8.52;;;5.90;;
70266;SDS011;57676;43.856;1.926;2022-07-22T07:28:07;13.32;;;6.43;;
70266;SDS011;57676;43.856;1.926;2022-07-22T07:30:33;12.02;;;6.20;;
70266;SDS011;57676;43.856;1.926;2022-07-22T07:33:00;11.27;;;6.20;;
70266;SDS011;57676;43.856;1.926;2022-07-22T07:35:26;10.73;;;6.15;;
70266;SDS011;57676;43.856;1.926;2022-07-22T07:37:53;8.23;;;6.43;;
70266;SDS011;57676;43.856;1.926;2022-07-22T07:40:19;12.50;;;6.65;;
70266;SDS011;57676;43.856;1.926;2022-07-22T07:42:47;9.05;;;6.88;;
70266;SDS011;57676;43.856;1.926;2022-07-22T07:45:14;9.18;;;6.35;;
70266;SDS011;57676;43.856;1.926;2022-07-22T07:47:41;7.85;;;6.70;;
70266;SDS011;57676;43.856;1.926;2022-07-22T07:50:07;11.30;;;6.85;;
70266;SDS011;57676;43.856;1.926;2022-07-22T07:55:20;9.63;;;6.70;;
70266;SDS011;57676;43.856;1.926;2022-07-22T07:57:47;11.10;;;7.07;;
70266;SDS011;57676;43.856;1.926;2022-07-22T08:00:18;10.18;;;6.82;;
70266;SDS011;57676;43.856;1.926;2022-07-22T08:02:45;10.63;;;7.10;;
70266;SDS011;57676;43.856;1.926;2022-07-22T08:05:12;10.27;;;7.25;;
70266;SDS011;57676;43.856;1.926;2022-07-22T08:10:32;13.75;;;6.82;;
70266;SDS011;57676;43.856;1.926;2022-07-22T08:13:00;10.52;;;7.47;;
70266;SDS011;57676;43.856;1.926;2022-07-22T08:15:28;8.45;;;7.60;;
70266;SDS011;57676;43.856;1.926;2022-07-22T08:17:56;9.82;;;7.63;;
70266;SDS011;57676;43.856;1.926;2022-07-22T08:20:38;11.52;;;7.75;;
70266;SDS011;57676;43.856;1.926;2022-07-22T08:23:06;8.23;;;7.43;;
70266;SDS011;57676;43.856;1.926;2022-07-22T08:25:33;8.75;;;7.85;;
70266;SDS011;57676;43.856;1.926;2022-07-22T08:28:00;9.18;;;8.27;;
70266;SDS011;57676;43.856;1.926;2022-07-22T08:30:28;9.05;;;8.15;;
70266;SDS011;57676;43.856;1.926;2022-07-22T08:32:56;8.52;;;7.72;;
70266;SDS011;57676;43.856;1.926;2022-07-22T08:35:24;11.38;;;8.82;;
70266;SDS011;57676;43.856;1.926;2022-07-22T08:37:50;9.23;;;8.32;;
70266;SDS011;57676;43.856;1.926;2022-07-22T08:40:17;10.80;;;8.65;;
70266;SDS011;57676;43.856;1.926;2022-07-22T08:42:44;10.50;;;8.45;;
70266;SDS011;57676;43.856;1.926;2022-07-22T08:45:12;11.95;;;9.05;;
70266;SDS011;57676;43.856;1.926;2022-07-22T08:47:45;10.55;;;8.45;;
70266;SDS011;57676;43.856;1.926;2022-07-22T08:50:14;10.07;;;8.70;;
70266;SDS011;57676;43.856;1.926;2022-07-22T08:52:50;10.02;;;9.07;;
70266;SDS011;57676;43.856;1.926;2022-07-22T08:55:17;9.23;;;8.32;;
70266;SDS011;57676;43.856;1.926;2022-07-22T08:57:49;12.30;;;9.40;;
70266;SDS011;57676;43.856;1.926;2022-07-22T09:00:20;10.63;;;9.63;;
70266;SDS011;57676;43.856;1.926;2022-07-22T09:02:49;14.27;;;9.60;;
70266;SDS011;57676;43.856;1.926;2022-07-22T09:05:32;10.98;;;9.00;;
70266;SDS011;57676;43.856;1.926;2022-07-22T09:10:47;12.10;;;9.50;;
70266;SDS011;57676;43.856;1.926;2022-07-22T09:13:15;10.23;;;9.00;;
70266;SDS011;57676;43.856;1.926;2022-07-22T09:15:53;10.10;;;8.93;;
70266;SDS011;57676;43.856;1.926;2022-07-22T09:18:20;15.20;;;9.93;;
70266;SDS011;57676;43.856;1.926;2022-07-22T09:20:58;11.80;;;9.88;;
70266;SDS011;57676;43.856;1.926;2022-07-22T09:23:25;12.02;;;8.73;;
70266;SDS011;57676;43.856;1.926;2022-07-22T09:28:24;10.88;;;9.65;;
70266;SDS011;57676;43.856;1.926;2022-07-22T09:30:52;11.35;;;8.85;;
70266;SDS011;57676;43.856;1.926;2022-07-22T09:33:25;10.40;;;8.55;;
70266;SDS011;57676;43.856;1.926;2022-07-22T09:38:37;11.18;;;8.80;;
70266;SDS011;57676;43.856;1.926;2022-07-22T09:41:10;11.75;;;9.02;;
70266;SDS011;57676;43.856;1.926;2022-07-22T09:43:38;12.88;;;9.10;;
70266;SDS011;57676;43.856;1.926;2022-07-22T09:46:07;12.80;;;9.27;;
70266;SDS011;57676;43.856;1.926;2022-07-22T09:48:38;10.75;;;9.05;;
70266;SDS011;57676;43.856;1.926;2022-07-22T09:51:07;14.82;;;9.57;;
70266;SDS011;57676;43.856;1.926;2022-07-22T09:53:39;12.15;;;9.25;;
70266;SDS011;57676;43.856;1.926;2022-07-22T09:56:07;15.25;;;9.38;;
70266;SDS011;57676;43.856;1.926;2022-07-22T09:58:33;11.90;;;8.35;;
70266;SDS011;57676;43.856;1.926;2022-07-22T10:01:06;15.50;;;9.07;;
70266;SDS011;57676;43.856;1.926;2022-07-22T10:03:34;17.88;;;8.57;;
70266;SDS011;57676;43.856;1.926;2022-07-22T10:06:12;14.15;;;9.00;;
70266;SDS011;57676;43.856;1.926;2022-07-22T10:08:39;12.35;;;8.27;;
70266;SDS011;57676;43.856;1.926;2022-07-22T10:11:07;11.40;;;8.75;;
70266;SDS011;57676;43.856;1.926;2022-07-22T10:13:36;10.23;;;8.85;;
70266;SDS011;57676;43.856;1.926;2022-07-22T10:16:07;11.10;;;8.23;;
70266;SDS011;57676;43.856;1.926;2022-07-22T10:18:34;10.57;;;8.32;;
70266;SDS011;57676;43.856;1.926;2022-07-22T10:21:03;10.60;;;8.05;;
70266;SDS011;57676;43.856;1.926;2022-07-22T10:29:27;16.08;;;8.40;;
70266;SDS011;57676;43.856;1.926;2022-07-22T10:36:50;12.23;;;8.68;;
70266;SDS011;57676;43.856;1.926;2022-07-22T10:39:23;10.05;;;8.45;;
70266;SDS011;57676;43.856;1.926;2022-07-22T10:41:49;10.70;;;8.43;;
70266;SDS011;57676;43.856;1.926;2022-07-22T10:47:03;11.60;;;8.35;;
70266;SDS011;57676;43.856;1.926;2022-07-22T11:00:38;13.77;;;7.85;;
70266;SDS011;57676;43.856;1.926;2022-07-22T11:06:28;11.30;;;9.07;;
70266;SDS011;57676;43.856;1.926;2022-07-22T11:11:54;10.60;;;7.78;;
70266;SDS011;57676;43.856;1.926;2022-07-22T11:14:29;15.60;;;8.48;;
70266;SDS011;57676;43.856;1.926;2022-07-22T11:16:57;9.65;;;8.48;;
70266;SDS011;57676;43.856;1.926;2022-07-22T11:19:25;12.82;;;8.32;;
70266;SDS011;57676;43.856;1.926;2022-07-22T11:21:54;9.18;;;8.18;;
70266;SDS011;57676;43.856;1.926;2022-07-22T11:24:39;17.00;;;8.05;;
70266;SDS011;57676;43.856;1.926;2022-07-22T11:27:14;10.02;;;7.80;;
70266;SDS011;57676;43.856;1.926;2022-07-22T11:30:00;16.13;;;8.63;;
70266;SDS011;57676;43.856;1.926;2022-07-22T11:32:41;11.75;;;8.65;;
70266;SDS011;57676;43.856;1.926;2022-07-22T11:35:12;11.57;;;8.20;;
70266;SDS011;57676;43.856;1.926;2022-07-22T11:37:44;10.63;;;8.45;;
70266;SDS011;57676;43.856;1.926;2022-07-22T11:40:40;12.13;;;8.43;;
70266;SDS011;57676;43.856;1.926;2022-07-22T11:48:39;13.27;;;8.00;;
70266;SDS011;57676;43.856;1.926;2022-07-22T11:51:07;11.50;;;8.20;;
70266;SDS011;57676;43.856;1.926;2022-07-22T11:53:36;9.98;;;8.93;;
70266;SDS011;57676;43.856;1.926;2022-07-22T11:56:05;14.52;;;9.45;;
70266;SDS011;57676;43.856;1.926;2022-07-22T11:58:45;11.18;;;7.90;;
70266;SDS011;57676;43.856;1.926;2022-07-22T12:01:25;10.27;;;8.63;;
70266;SDS011;57676;43.856;1.926;2022-07-22T12:03:54;10.93;;;8.60;;
70266;SDS011;57676;43.856;1.926;2022-07-22T12:06:21;11.13;;;8.23;;
70266;SDS011;57676;43.856;1.926;2022-07-22T12:08:51;11.65;;;8.70;;
70266;SDS011;57676;43.856;1.926;2022-07-22T12:11:18;19.05;;;9.20;;
70266;SDS011;57676;43.856;1.926;2022-07-22T12:13:49;13.77;;;9.07;;
70266;SDS011;57676;43.856;1.926;2022-07-22T12:18:49;12.10;;;8.77;;
70266;SDS011;57676;43.856;1.926;2022-07-22T12:21:17;13.63;;;9.13;;
70266;SDS011;57676;43.856;1.926;2022-07-22T12:23:49;11.88;;;9.25;;
70266;SDS011;57676;43.856;1.926;2022-07-22T12:29:28;12.60;;;9.70;;
70266;SDS011;57676;43.856;1.926;2022-07-22T12:32:05;12.32;;;9.32;;
70266;SDS011;57676;43.856;1.926;2022-07-22T12:37:33;17.20;;;8.80;;
70266;SDS011;57676;43.856;1.926;2022-07-22T12:40:09;10.48;;;9.48;;
70266;SDS011;57676;43.856;1.926;2022-07-22T12:45:30;10.18;;;9.18;;
70266;SDS011;57676;43.856;1.926;2022-07-22T12:48:06;14.00;;;9.10;;
70266;SDS011;57676;43.856;1.926;2022-07-22T12:50:42;11.95;;;9.02;;
70266;SDS011;57676;43.856;1.926;2022-07-22T12:53:17;10.45;;;9.15;;
70266;SDS011;57676;43.856;1.926;2022-07-22T12:55:52;10.30;;;8.63;;
70266;SDS011;57676;43.856;1.926;2022-07-22T12:58:27;10.02;;;9.05;;
70266;SDS011;57676;43.856;1.926;2022-07-22T13:01:00;11.95;;;9.27;;
70266;SDS011;57676;43.856;1.926;2022-07-22T13:03:34;12.82;;;8.27;;
70266;SDS011;57676;43.856;1.926;2022-07-22T13:06:06;13.60;;;8.95;;
70266;SDS011;57676;43.856;1.926;2022-07-22T13:16:28;10.38;;;9.18;;
70266;SDS011;57676;43.856;1.926;2022-07-22T13:19:02;10.52;;;8.52;;
70266;SDS011;57676;43.856;1.926;2022-07-22T13:21:34;9.65;;;8.65;;
70266;SDS011;57676;43.856;1.926;2022-07-22T13:24:01;14.38;;;8.70;;
70266;SDS011;57676;43.856;1.926;2022-07-22T13:26:31;10.98;;;8.10;;
70266;SDS011;57676;43.856;1.926;2022-07-22T13:29:00;10.93;;;8.98;;
70266;SDS011;57676;43.856;1.926;2022-07-22T13:31:26;10.43;;;8.65;;
70266;SDS011;57676;43.856;1.926;2022-07-22T13:33:57;9.77;;;8.55;;
70266;SDS011;57676;43.856;1.926;2022-07-22T13:36:37;10.50;;;8.45;;
70266;SDS011;57676;43.856;1.926;2022-07-22T13:39:15;9.30;;;7.63;;
70266;SDS011;57676;43.856;1.926;2022-07-22T13:41:51;11.45;;;7.75;;
70266;SDS011;57676;43.856;1.926;2022-07-22T13:44:27;14.07;;;8.32;;
70266;SDS011;57676;43.856;1.926;2022-07-22T13:47:00;8.27;;;7.50;;
70266;SDS011;57676;43.856;1.926;2022-07-22T13:49:31;9.57;;;8.52;;
70266;SDS011;57676;43.856;1.926;2022-07-22T13:52:03;12.95;;;8.73;;
70266;SDS011;57676;43.856;1.926;2022-07-22T13:54:33;9.73;;;8.48;;
70266;SDS011;57676;43.856;1.926;2022-07-22T13:57:05;10.90;;;8.75;;
70266;SDS011;57676;43.856;1.926;2022-07-22T13:59:36;11.95;;;7.93;;
70266;SDS011;57676;43.856;1.926;2022-07-22T14:02:10;12.35;;;8.27;;
70266;SDS011;57676;43.856;1.926;2022-07-22T14:05:00;8.63;;;7.82;;
70266;SDS011;57676;43.856;1.926;2022-07-22T14:07:44;14.45;;;8.07;;
70266;SDS011;57676;43.856;1.926;2022-07-22T14:10:18;11.07;;;8.30;;
70266;SDS011;57676;43.856;1.926;2022-07-22T14:20:43;10.13;;;7.47;;
70266;SDS011;57676;43.856;1.926;2022-07-22T14:25:52;12.52;;;8.27;;
70266;SDS011;57676;43.856;1.926;2022-07-22T14:28:24;13.55;;;8.05;;
70266;SDS011;57676;43.856;1.926;2022-07-22T14:30:59;10.30;;;8.20;;
70266;SDS011;57676;43.856;1.926;2022-07-22T14:33:34;10.30;;;7.75;;
70266;SDS011;57676;43.856;1.926;2022-07-22T14:36:07;12.60;;;8.23;;
70266;SDS011;57676;43.856;1.926;2022-07-22T14:38:46;10.77;;;7.93;;
70266;SDS011;57676;43.856;1.926;2022-07-22T14:41:31;10.88;;;8.32;;
70266;SDS011;57676;43.856;1.926;2022-07-22T14:44:06;10.68;;;7.57;;
70266;SDS011;57676;43.856;1.926;2022-07-22T14:46:35;8.35;;;7.40;;
70266;SDS011;57676;43.856;1.926;2022-07-22T14:49:03;12.82;;;7.82;;
70266;SDS011;57676;43.856;1.926;2022-07-22T14:51:29;10.05;;;7.95;;
70266;SDS011;57676;43.856;1.926;2022-07-22T14:53:56;9.02;;;7.75;;
70266;SDS011;57676;43.856;1.926;2022-07-22T14:56:22;9.27;;;7.75;;
70266;SDS011;57676;43.856;1.926;2022-07-22T15:01:19;8.40;;;7.53;;
70266;SDS011;57676;43.856;1.926;2022-07-22T15:03:45;13.98;;;8.52;;
70266;SDS011;57676;43.856;1.926;2022-07-22T15:06:14;12.18;;;7.68;;
70266;SDS011;57676;43.856;1.926;2022-07-22T15:08:55;10.07;;;8.32;;
70266;SDS011;57676;43.856;1.926;2022-07-22T15:11:31;8.10;;;7.30;;
70266;SDS011;57676;43.856;1.926;2022-07-22T15:14:06;12.85;;;7.90;;
70266;SDS011;57676;43.856;1.926;2022-07-22T15:16:43;9.15;;;8.25;;
70266;SDS011;57676;43.856;1.926;2022-07-22T15:19:15;11.95;;;8.10;;
70266;SDS011;57676;43.856;1.926;2022-07-22T15:21:47;14.07;;;8.60;;
70266;SDS011;57676;43.856;1.926;2022-07-22T15:24:27;12.18;;;8.13;;
70266;SDS011;57676;43.856;1.926;2022-07-22T15:26:56;10.13;;;8.32;;
70266;SDS011;57676;43.856;1.926;2022-07-22T15:32:07;10.10;;;7.95;;
70266;SDS011;57676;43.856;1.926;2022-07-22T15:34:40;19.88;;;8.43;;
70266;SDS011;57676;43.856;1.926;2022-07-22T15:37:11;10.25;;;8.23;;
70266;SDS011;57676;43.856;1.926;2022-07-22T15:39:44;11.27;;;8.90;;
70266;SDS011;57676;43.856;1.926;2022-07-22T15:42:20;10.88;;;8.32;;
70266;SDS011;57676;43.856;1.926;2022-07-22T15:47:38;9.43;;;7.70;;
70266;SDS011;57676;43.856;1.926;2022-07-22T15:52:33;11.38;;;8.75;;
70266;SDS011;57676;43.856;1.926;2022-07-22T15:55:02;13.52;;;8.77;;
70266;SDS011;57676;43.856;1.926;2022-07-22T15:57:28;10.80;;;8.25;;
70266;SDS011;57676;43.856;1.926;2022-07-22T16:02:43;8.98;;;7.68;;
70266;SDS011;57676;43.856;1.926;2022-07-22T16:05:12;10.07;;;8.02;;
70266;SDS011;57676;43.856;1.926;2022-07-22T16:07:45;9.27;;;7.60;;
70266;SDS011;57676;43.856;1.926;2022-07-22T16:10:14;12.30;;;8.20;;
70266;SDS011;57676;43.856;1.926;2022-07-22T16:12:43;10.20;;;7.85;;
70266;SDS011;57676;43.856;1.926;2022-07-22T16:17:44;9.90;;;7.20;;
70266;SDS011;57676;43.856;1.926;2022-07-22T16:20:12;8.63;;;7.35;;
70266;SDS011;57676;43.856;1.926;2022-07-22T16:22:38;8.13;;;7.38;;
70266;SDS011;57676;43.856;1.926;2022-07-22T16:25:05;8.50;;;7.57;;
70266;SDS011;57676;43.856;1.926;2022-07-22T16:27:31;11.57;;;7.35;;
70266;SDS011;57676;43.856;1.926;2022-07-22T16:29:58;9.90;;;7.18;;
70266;SDS011;57676;43.856;1.926;2022-07-22T16:32:24;11.38;;;7.20;;
70266;SDS011;57676;43.856;1.926;2022-07-22T16:34:50;9.70;;;7.28;;
70266;SDS011;57676;43.856;1.926;2022-07-22T16:37:16;10.82;;;7.50;;
70266;SDS011;57676;43.856;1.926;2022-07-22T16:39:44;11.38;;;7.55;;
70266;SDS011;57676;43.856;1.926;2022-07-22T16:42:10;12.82;;;8.52;;
70266;SDS011;57676;43.856;1.926;2022-07-22T16:44:36;17.83;;;7.88;;
70266;SDS011;57676;43.856;1.926;2022-07-22T16:47:03;12.23;;;7.40;;
70266;SDS011;57676;43.856;1.926;2022-07-22T16:49:33;9.38;;;7.55;;
70266;SDS011;57676;43.856;1.926;2022-07-22T16:51:59;13.48;;;7.05;;
70266;SDS011;57676;43.856;1.926;2022-07-22T16:54:26;10.20;;;7.15;;
70266;SDS011;57676;43.856;1.926;2022-07-22T16:56:53;18.77;;;8.40;;
70266;SDS011;57676;43.856;1.926;2022-07-22T16:59:19;19.67;;;8.55;;
70266;SDS011;57676;43.856;1.926;2022-07-22T17:01:46;22.85;;;7.18;;
70266;SDS011;57676;43.856;1.926;2022-07-22T17:04:13;17.73;;;8.10;;
70266;SDS011;57676;43.856;1.926;2022-07-22T17:06:42;12.88;;;7.43;;